Omskiy-141 — UGZK — position and weather

sailwx.info

Track history (hours):
 
Tides and Currents Weather Stations Pressure Air Temp Water Temp Dewpoint Dewpoint Depression Visibility Wind Speed Wind Dir Waves Ship Positions

Omskiy-141

Last reported at 2015-Jan-30 20:30 UTC. Time now 2015-Jan-31 05:33 UTC.
Position N 54°40' E 019°38'.

Length 108 m; draft 2.6 m.

Type: Cargo ship. MMSI: 273310600.

Date/timePositionNaut miles runAvg speedWind from/ knotsBaromVisibWave heightAir tempDewpointWater temp
2015-Jan-30 20:30N 54°40' E 019°38'7 7.5
2015-Jan-30 19:33N 54°41' E 019°26'7 7.3
2015-Jan-30 18:33N 54°41' E 019°14'7 7.2
2015-Jan-30 17:33N 54°41' E 019°01'8 8.3
2015-Jan-30 16:33N 54°34' E 018°52'9 8.7
2015-Jan-30 15:33N 54°28' E 018°42'2 2.4
2015-Jan-30 14:32N 54°27' E 018°39'0 0.0
2015-Jan-30 13:32N 54°27' E 018°39'0 0.0
2015-Jan-30 12:32N 54°27' E 018°39'0 0.0
2015-Jan-30 11:32N 54°27' E 018°39'0 0.0
2015-Jan-30 10:32N 54°27' E 018°39'0 0.0
2015-Jan-30 09:32N 54°27' E 018°39'0 0.0
2015-Jan-30 08:32N 54°27' E 018°39'0 0.0
2015-Jan-30 07:32N 54°27' E 018°39'0 0.0
2015-Jan-30 06:32N 54°27' E 018°39'0 0.0
2015-Jan-30 05:32N 54°27' E 018°39'0 0.0
2015-Jan-30 04:32N 54°27' E 018°39'0 0.0
2015-Jan-30 03:32N 54°27' E 018°39'0 0.0
2015-Jan-30 02:32N 54°27' E 018°39'0 0.0
2015-Jan-30 01:32N 54°27' E 018°39'0 0.0
2015-Jan-30 00:32N 54°27' E 018°39'0 0.0
2015-Jan-29 23:32N 54°27' E 018°39'0 0.0
2015-Jan-29 22:32N 54°27' E 018°39'0 0.0
2015-Jan-29 21:32N 54°27' E 018°39'0 0.0
2015-Jan-29 20:32N 54°27' E 018°39'0 0.0
2015-Jan-29 19:32N 54°27' E 018°39'0 0.0
2015-Jan-29 18:32N 54°27' E 018°39'0 0.0
2015-Jan-29 17:32N 54°27' E 018°39'0 0.0
2015-Jan-29 16:32N 54°27' E 018°39'0 0.0
2015-Jan-29 15:32N 54°27' E 018°39'0 0.0
2015-Jan-29 14:32N 54°27' E 018°39'0 0.0
2015-Jan-29 13:32N 54°27' E 018°39'0 0.0
2015-Jan-29 12:32N 54°27' E 018°39'0 0.0
2015-Jan-29 11:32N 54°27' E 018°39'0 0.0
2015-Jan-29 10:32N 54°27' E 018°39'0 0.0
2015-Jan-29 09:32N 54°27' E 018°39'0 0.0
2015-Jan-29 08:32N 54°27' E 018°39'4 3.9
2015-Jan-29 07:31N 54°23' E 018°40'0 0.0
2015-Jan-29 06:31N 54°23' E 018°40'0 0.0
2015-Jan-29 05:31N 54°23' E 018°40'0 0.0
2015-Jan-29 04:31N 54°23' E 018°40'0 0.0
2015-Jan-29 03:31N 54°23' E 018°40'0 0.0
2015-Jan-29 02:31N 54°23' E 018°40'0 0.0
2015-Jan-29 01:31N 54°23' E 018°40'0 0.0
2015-Jan-29 00:31N 54°23' E 018°40'0 0.0
2015-Jan-28 23:31N 54°23' E 018°40'0 0.0
2015-Jan-28 22:31N 54°23' E 018°40'0 0.0
2015-Jan-28 21:31N 54°23' E 018°40'0 0.0
2015-Jan-28 20:31N 54°23' E 018°40'0 0.0
2015-Jan-28 19:31N 54°23' E 018°40'0 0.0
2015-Jan-28 18:31N 54°23' E 018°40'0 0.0
2015-Jan-28 17:31N 54°23' E 018°40'0 0.0
2015-Jan-28 16:31N 54°23' E 018°40'0 0.0
2015-Jan-28 15:31N 54°23' E 018°40'0 0.0
2015-Jan-28 14:31N 54°23' E 018°40'0 0.0
2015-Jan-28 13:31N 54°23' E 018°40'0 0.0
2015-Jan-28 12:31N 54°23' E 018°40'0 0.0
2015-Jan-28 11:31N 54°23' E 018°40'0 0.0
2015-Jan-28 10:31N 54°23' E 018°40'0 0.0
2015-Jan-28 09:28N 54°23' E 018°40'0 0.0
2015-Jan-28 08:31N 54°23' E 018°40'0 0.0
2015-Jan-28 07:31N 54°23' E 018°40'0 0.0
2015-Jan-28 06:31N 54°23' E 018°40'0 0.0
2015-Jan-28 05:33N 54°23' E 018°40'0 0.0
2015-Jan-28 04:33N 54°23' E 018°40'0 0.0
2015-Jan-28 03:33N 54°23' E 018°40'0 0.0
2015-Jan-28 02:33N 54°23' E 018°40'0 0.0
2015-Jan-28 01:33N 54°23' E 018°40'0 0.0
2015-Jan-28 00:33N 54°23' E 018°40'3 3.0
2015-Jan-27 23:33N 54°26' E 018°39'8 8.3
2015-Jan-27 22:33N 54°32' E 018°48'8 8.0
2015-Jan-27 21:33N 54°39' E 018°55'8 8.3
2015-Jan-27 20:33N 54°46' E 019°01'8 8.4
2015-Jan-27 19:33N 54°54' E 019°09'  
2015-Jan-24 07:05N 54°27' E 015°15'22 8.6
2015-Jan-24 04:31N 54°13' E 014°46'8 8.4
2015-Jan-24 03:33N 54°08' E 014°35'9 8.6
2015-Jan-24 02:33N 54°03' E 014°23'8 7.7
2015-Jan-24 01:33N 53°56' E 014°16'7 7.3
2015-Jan-24 00:33N 53°49' E 014°19'9 8.4
2015-Jan-23 23:32N 53°43' E 014°28'9 8.8
2015-Jan-23 22:33N 53°35' E 014°36'11 0.3
2015-Jan-22 09:10N 53°24' E 014°36'0 0.0
2015-Jan-22 08:31N 53°24' E 014°36'0 0.0
2015-Jan-22 07:31N 53°24' E 014°36'0 0.0
2015-Jan-22 06:31N 53°24' E 014°36'0 0.0
2015-Jan-22 05:31N 53°24' E 014°36'0 0.0
2015-Jan-22 04:31N 53°24' E 014°36'0 0.0
2015-Jan-22 03:28N 53°24' E 014°36'4 4.5
2015-Jan-22 02:33N 53°28' E 014°36'7 7.1
2015-Jan-22 01:33N 53°35' E 014°36'8 7.9
2015-Jan-22 00:33N 53°42' E 014°29'8 8.2
2015-Jan-21 23:33N 53°49' E 014°20'5 7.2
2015-Jan-21 22:50N 53°53' E 014°16'1 7.3
2015-Jan-21 22:46N 53°53' E 014°15'1 6.1
2015-Jan-21 22:33N 53°55' E 014°16'7 6.8
2015-Jan-21 21:33N 54°01' E 014°18'8 8.1
2015-Jan-21 20:33N 54°06' E 014°29'  
Track history (hours):
 
Tides and Currents Weather Stations Pressure Air Temp Water Temp Dewpoint Dewpoint Depression Visibility Wind Speed Wind Dir Waves Ship Positions

Omskiy-141

Last reported at 2015-Jan-30 20:30 UTC. Time now 2015-Jan-31 05:33 UTC.
Position N 54°40' E 019°38'.

Length 108 m; draft 2.6 m.

Type: Cargo ship. MMSI: 273310600.

Date/timePositionNaut miles runAvg speedWind from/ knotsBaromVisibWave heightAir tempDewpointWater temp
2015-Jan-30 20:30N 54°40' E 019°38'7 7.5
2015-Jan-30 19:33N 54°41' E 019°26'7 7.3
2015-Jan-30 18:33N 54°41' E 019°14'7 7.2
2015-Jan-30 17:33N 54°41' E 019°01'8 8.3
2015-Jan-30 16:33N 54°34' E 018°52'9 8.7
2015-Jan-30 15:33N 54°28' E 018°42'2 2.4
2015-Jan-30 14:32N 54°27' E 018°39'0 0.0
2015-Jan-30 13:32N 54°27' E 018°39'0 0.0
2015-Jan-30 12:32N 54°27' E 018°39'0 0.0
2015-Jan-30 11:32N 54°27' E 018°39'0 0.0
2015-Jan-30 10:32N 54°27' E 018°39'0 0.0
2015-Jan-30 09:32N 54°27' E 018°39'0 0.0
2015-Jan-30 08:32N 54°27' E 018°39'0 0.0
2015-Jan-30 07:32N 54°27' E 018°39'0 0.0
2015-Jan-30 06:32N 54°27' E 018°39'0 0.0
2015-Jan-30 05:32N 54°27' E 018°39'0 0.0
2015-Jan-30 04:32N 54°27' E 018°39'0 0.0
2015-Jan-30 03:32N 54°27' E 018°39'0 0.0
2015-Jan-30 02:32N 54°27' E 018°39'0 0.0
2015-Jan-30 01:32N 54°27' E 018°39'0 0.0
2015-Jan-30 00:32N 54°27' E 018°39'0 0.0
2015-Jan-29 23:32N 54°27' E 018°39'0 0.0
2015-Jan-29 22:32N 54°27' E 018°39'0 0.0
2015-Jan-29 21:32N 54°27' E 018°39'0 0.0
2015-Jan-29 20:32N 54°27' E 018°39'0 0.0
2015-Jan-29 19:32N 54°27' E 018°39'0 0.0
2015-Jan-29 18:32N 54°27' E 018°39'0 0.0
2015-Jan-29 17:32N 54°27' E 018°39'0 0.0
2015-Jan-29 16:32N 54°27' E 018°39'0 0.0
2015-Jan-29 15:32N 54°27' E 018°39'0 0.0
2015-Jan-29 14:32N 54°27' E 018°39'0 0.0
2015-Jan-29 13:32N 54°27' E 018°39'0 0.0
2015-Jan-29 12:32N 54°27' E 018°39'0 0.0
2015-Jan-29 11:32N 54°27' E 018°39'0 0.0
2015-Jan-29 10:32N 54°27' E 018°39'0 0.0
2015-Jan-29 09:32N 54°27' E 018°39'0 0.0
2015-Jan-29 08:32N 54°27' E 018°39'4 3.9
2015-Jan-29 07:31N 54°23' E 018°40'0 0.0
2015-Jan-29 06:31N 54°23' E 018°40'0 0.0
2015-Jan-29 05:31N 54°23' E 018°40'0 0.0
2015-Jan-29 04:31N 54°23' E 018°40'0 0.0
2015-Jan-29 03:31N 54°23' E 018°40'0 0.0
2015-Jan-29 02:31N 54°23' E 018°40'0 0.0
2015-Jan-29 01:31N 54°23' E 018°40'0 0.0
2015-Jan-29 00:31N 54°23' E 018°40'0 0.0
2015-Jan-28 23:31N 54°23' E 018°40'0 0.0
2015-Jan-28 22:31N 54°23' E 018°40'0 0.0
2015-Jan-28 21:31N 54°23' E 018°40'0 0.0
2015-Jan-28 20:31N 54°23' E 018°40'0 0.0
2015-Jan-28 19:31N 54°23' E 018°40'0 0.0
2015-Jan-28 18:31N 54°23' E 018°40'0 0.0
2015-Jan-28 17:31N 54°23' E 018°40'0 0.0
2015-Jan-28 16:31N 54°23' E 018°40'0 0.0
2015-Jan-28 15:31N 54°23' E 018°40'0 0.0
2015-Jan-28 14:31N 54°23' E 018°40'0 0.0
2015-Jan-28 13:31N 54°23' E 018°40'0 0.0
2015-Jan-28 12:31N 54°23' E 018°40'0 0.0
2015-Jan-28 11:31N 54°23' E 018°40'0 0.0
2015-Jan-28 10:31N 54°23' E 018°40'0 0.0
2015-Jan-28 09:28N 54°23' E 018°40'0 0.0
2015-Jan-28 08:31N 54°23' E 018°40'0 0.0
2015-Jan-28 07:31N 54°23' E 018°40'0 0.0
2015-Jan-28 06:31N 54°23' E 018°40'0 0.0
2015-Jan-28 05:33N 54°23' E 018°40'0 0.0
2015-Jan-28 04:33N 54°23' E 018°40'0 0.0
2015-Jan-28 03:33N 54°23' E 018°40'0 0.0
2015-Jan-28 02:33N 54°23' E 018°40'0 0.0
2015-Jan-28 01:33N 54°23' E 018°40'0 0.0
2015-Jan-28 00:33N 54°23' E 018°40'3 3.0
2015-Jan-27 23:33N 54°26' E 018°39'8 8.3
2015-Jan-27 22:33N 54°32' E 018°48'8 8.0
2015-Jan-27 21:33N 54°39' E 018°55'8 8.3
2015-Jan-27 20:33N 54°46' E 019°01'8 8.4
2015-Jan-27 19:33N 54°54' E 019°09'  
2015-Jan-24 07:05N 54°27' E 015°15'22 8.6
2015-Jan-24 04:31N 54°13' E 014°46'8 8.4
2015-Jan-24 03:33N 54°08' E 014°35'9 8.6
2015-Jan-24 02:33N 54°03' E 014°23'8 7.7
2015-Jan-24 01:33N 53°56' E 014°16'7 7.3
2015-Jan-24 00:33N 53°49' E 014°19'9 8.4
2015-Jan-23 23:32N 53°43' E 014°28'9 8.8
2015-Jan-23 22:33N 53°35' E 014°36'11 0.3
2015-Jan-22 09:10N 53°24' E 014°36'0 0.0
2015-Jan-22 08:31N 53°24' E 014°36'0 0.0
2015-Jan-22 07:31N 53°24' E 014°36'0 0.0
2015-Jan-22 06:31N 53°24' E 014°36'0 0.0
2015-Jan-22 05:31N 53°24' E 014°36'0 0.0
2015-Jan-22 04:31N 53°24' E 014°36'0 0.0
2015-Jan-22 03:28N 53°24' E 014°36'4 4.5
2015-Jan-22 02:33N 53°28' E 014°36'7 7.1
2015-Jan-22 01:33N 53°35' E 014°36'8 7.9
2015-Jan-22 00:33N 53°42' E 014°29'8 8.2
2015-Jan-21 23:33N 53°49' E 014°20'5 7.2
2015-Jan-21 22:50N 53°53' E 014°16'1 7.3
2015-Jan-21 22:46N 53°53' E 014°15'1 6.1
2015-Jan-21 22:33N 53°55' E 014°16'7 6.8
2015-Jan-21 21:33N 54°01' E 014°18'8 8.1
2015-Jan-21 20:33N 54°06' E 014°29'  

Dump ship's entire track history